Time;durP1;ratioP1;P1;durP2;ratioP2;P2;SDS_P1;SDS_P2;PMS_P1;PMS_P2;Temp;Humidity;BMP_temperature;BMP_pressure;BME280_temperature;BME280_humidity;BME280_pressure;Samples;Min_cycle;Max_cycle;Signal;HPM_P1;HPM_P2
2022/04/17 00:02:00;;;;;;;2.88;2.30;;;7.70;93.60;;;;;;5052258;28;20207;-60
2022/04/17 00:04:29;;;;;;;2.38;2.17;;;7.60;92.80;;;;;;5056137;28;20203;-61
2022/04/17 00:06:58;;;;;;;3.67;2.50;;;7.60;93.10;;;;;;5052676;28;20280;-61
2022/04/17 00:09:26;;;;;;;2.20;2.05;;;7.60;92.90;;;;;;5048716;28;20595;-60
2022/04/17 00:11:54;;;;;;;2.22;2.13;;;7.60;93.50;;;;;;5052250;28;20231;-61
2022/04/17 00:14:22;;;;;;;2.28;2.08;;;7.60;93.50;;;;;;5046756;28;20289;-61
2022/04/17 00:16:50;;;;;;;2.03;1.85;;;7.50;93.50;;;;;;5047050;28;20235;-60
2022/04/17 00:19:18;;;;;;;3.15;2.00;;;7.50;93.40;;;;;;5053329;28;20233;-61
2022/04/17 00:21:46;;;;;;;2.38;2.15;;;7.40;95.60;;;;;;5049478;28;20673;-61
2022/04/17 00:24:16;;;;;;;1.95;1.85;;;7.40;94.10;;;;;;5046235;28;20193;-61
2022/04/17 00:26:43;;;;;;;2.10;1.90;;;7.40;94.30;;;;;;5053322;28;20431;-61
2022/04/17 00:29:11;;;;;;;2.63;2.20;;;7.20;93.60;;;;;;5052752;28;20257;-60
2022/04/17 00:31:39;;;;;;;2.20;1.90;;;7.30;96.60;;;;;;5053199;28;20545;-61
2022/04/17 00:34:07;;;;;;;2.33;1.80;;;7.30;94.80;;;;;;5052069;28;20688;-61
2022/04/17 00:36:35;;;;;;;3.35;2.13;;;7.20;95.70;;;;;;5052745;28;20200;-60
2022/04/17 00:39:03;;;;;;;2.45;2.15;;;7.30;95.60;;;;;;5055836;28;20230;-60
2022/04/17 00:41:32;;;;;;;3.08;2.60;;;7.20;95.70;;;;;;5027519;28;20216;-61
2022/04/17 00:44:00;;;;;;;2.60;2.40;;;7.40;95.10;;;;;;5032339;28;20247;-61
2022/04/17 00:46:28;;;;;;;1.75;1.65;;;7.20;94.60;;;;;;5033074;28;20255;-61
2022/04/17 00:48:56;;;;;;;2.40;2.20;;;7.10;94.50;;;;;;5032605;28;20207;-61
2022/04/17 00:51:24;;;;;;;2.30;2.10;;;7.10;96.10;;;;;;5031577;28;20328;-61
2022/04/17 00:53:53;;;;;;;2.28;1.98;;;7.20;95.20;;;;;;5031904;28;20629;-61
2022/04/17 00:56:22;;;;;;;2.63;2.00;;;7.20;97.90;;;;;;5032978;28;20221;-61
2022/04/17 00:58:52;;;;;;;1.90;1.67;;;7.30;96.50;;;;;;5032510;28;20240;-61
2022/04/17 01:01:20;;;;;;;2.47;2.13;;;7.10;98.30;;;;;;5032541;28;20259;-61
2022/04/17 01:03:50;;;;;;;3.80;2.10;;;7.20;95.40;;;;;;5031572;28;20658;-60
2022/04/17 01:06:18;;;;;;;2.50;2.30;;;7.20;97.40;;;;;;5032301;28;20300;-61
2022/04/17 01:08:46;;;;;;;2.45;2.13;;;7.30;99.90;;;;;;5033368;28;20270;-60
2022/04/17 01:11:14;;;;;;;2.03;1.83;;;7.20;95.30;;;;;;5036698;28;20271;-61
2022/04/17 01:13:42;;;;;;;2.28;1.83;;;7.10;96.70;;;;;;5031817;28;20216;-61
2022/04/17 01:16:16;;;;;;;2.20;2.00;;;7.20;98.20;;;;;;5032057;28;20666;-61
2022/04/17 01:18:55;;;;;;;2.10;1.90;;;7.30;97.20;;;;;;5032352;28;20614;-61
2022/04/17 01:21:25;;;;;;;1.90;1.80;;;7.20;98.00;;;;;;5031463;28;20224;-61
2022/04/17 01:26:59;;;;;;;2.58;1.65;;;7.10;96.30;;;;;;5032198;28;20223;-61
2022/04/17 01:29:31;;;;;;;1.75;1.63;;;7.10;97.40;;;;;;5032204;28;20278;-61
2022/04/17 01:31:59;;;;;;;4.13;1.85;;;7.00;96.90;;;;;;5031597;28;20200;-60
2022/04/17 01:34:27;;;;;;;1.92;1.77;;;6.90;97.90;;;;;;5031882;28;20243;-60
2022/04/17 01:36:57;;;;;;;1.80;1.70;;;7.00;99.90;;;;;;5031349;28;20612;-61
2022/04/17 01:39:25;;;;;;;2.80;2.00;;;7.00;96.80;;;;;;5031309;28;20702;-61
2022/04/17 01:41:54;;;;;;;2.95;1.90;;;7.00;97.50;;;;;;5031988;28;20674;-61
2022/04/17 01:44:24;;;;;;;3.58;2.20;;;7.00;97.50;;;;;;5031494;28;20200;-60
2022/04/17 01:46:52;;;;;;;3.88;1.70;;;6.80;97.00;;;;;;5031877;28;20215;-61
2022/04/17 01:49:20;;;;;;;1.80;1.70;;;6.70;97.30;;;;;;5031101;28;20204;-60
2022/04/17 01:51:51;;;;;;;3.53;2.05;;;6.60;98.80;;;;;;5031859;28;20623;-61
2022/04/17 01:54:21;;;;;;;2.00;1.90;;;6.50;97.70;;;;;;5030796;28;20231;-60
2022/04/17 01:56:49;;;;;;;2.15;1.90;;;6.50;98.20;;;;;;5031496;28;20311;-60
2022/04/17 01:59:18;;;;;;;2.05;1.80;;;6.60;98.10;;;;;;5031408;28;20246;-60
2022/04/17 02:01:47;;;;;;;1.70;1.60;;;6.60;99.90;;;;;;5031730;28;20232;-61
2022/04/17 02:04:15;;;;;;;3.10;1.75;;;6.70;99.50;;;;;;5023937;28;20209;-61
2022/04/17 02:06:44;;;;;;;2.35;1.95;;;6.70;98.20;;;;;;5030254;28;20200;-60
2022/04/17 02:09:13;;;;;;;2.63;1.80;;;6.70;99.90;;;;;;5035383;28;20204;-60
2022/04/17 02:11:43;;;;;;;2.03;1.70;;;6.70;99.90;;;;;;5031436;28;20205;-61
2022/04/17 02:14:12;;;;;;;2.20;2.00;;;7.00;99.90;;;;;;5012908;28;20258;-60
2022/04/17 02:16:40;;;;;;;1.58;1.40;;;7.20;99.90;;;;;;5031271;28;20690;-60
2022/04/17 02:19:08;;;;;;;3.25;1.50;;;7.20;99.40;;;;;;5031001;28;20244;-60
2022/04/17 02:21:36;;;;;;;1.77;1.48;;;7.10;99.90;;;;;;5030736;28;20205;-61
2022/04/17 02:24:05;;;;;;;1.70;1.60;;;7.10;99.90;;;;;;5030476;28;20291;-61
2022/04/17 02:26:33;;;;;;;2.10;1.88;;;7.10;99.90;;;;;;5031277;28;20568;-60
2022/04/17 02:29:02;;;;;;;1.88;1.77;;;7.30;99.90;;;;;;5030949;28;20197;-61
2022/04/17 02:31:31;;;;;;;1.65;1.50;;;7.50;99.90;;;;;;5030928;28;20254;-61
2022/04/17 02:33:59;;;;;;;2.00;1.20;;;7.40;98.60;;;;;;5030607;28;20204;-62
2022/04/17 02:36:27;;;;;;;3.40;1.77;;;7.30;99.90;;;;;;5028498;28;20542;-63
2022/04/17 02:38:55;;;;;;;1.80;1.70;;;7.10;99.80;;;;;;5028885;28;20220;-61
2022/04/17 02:41:23;;;;;;;1.88;1.77;;;6.80;99.20;;;;;;5030453;28;20237;-60
2022/04/17 02:43:51;;;;;;;3.53;1.92;;;6.60;99.90;;;;;;5032630;28;20674;-61
2022/04/17 02:49:02;;;;;;;2.95;1.60;;;6.90;99.90;;;;;;5029783;28;20775;-61
2022/04/17 02:51:30;;;;;;;2.20;2.00;;;6.70;99.90;;;;;;5028769;28;20251;-63
2022/04/17 02:53:58;;;;;;;1.67;1.25;;;6.80;99.90;;;;;;5030267;28;20266;-60
2022/04/17 02:56:27;;;;;;;3.22;1.98;;;6.80;99.90;;;;;;5030687;28;20311;-61
2022/04/17 02:58:54;;;;;;;1.75;1.60;;;6.80;99.90;;;;;;5030507;28;20209;-61
2022/04/17 03:07:01;;;;;;;2.40;1.50;;;6.80;99.90;;;;;;5030436;28;20192;-61
2022/04/17 03:09:29;;;;;;;2.30;1.55;;;6.70;99.90;;;;;;5033461;28;20228;-61
2022/04/17 03:11:57;;;;;;;1.92;1.75;;;6.60;99.90;;;;;;5030301;28;20256;-61
2022/04/17 03:14:25;;;;;;;1.63;1.50;;;6.70;99.90;;;;;;5030153;28;20258;-61
2022/04/17 03:16:56;;;;;;;1.73;1.60;;;6.60;99.90;;;;;;5034144;28;20256;-62
2022/04/17 03:19:24;;;;;;;2.38;2.15;;;6.50;99.90;;;;;;5034162;28;20232;-61
2022/04/17 03:21:51;;;;;;;2.38;1.70;;;6.50;99.90;;;;;;5034482;28;20658;-61
2022/04/17 03:24:20;;;;;;;2.83;1.52;;;6.50;99.90;;;;;;5033924;28;20196;-62
2022/04/17 03:26:47;;;;;;;1.60;1.27;;;6.60;99.90;;;;;;5034756;28;20232;-60
2022/04/17 03:29:15;;;;;;;1.73;1.50;;;6.60;99.90;;;;;;5034319;28;20259;-60
2022/04/17 03:31:44;;;;;;;1.83;1.38;;;6.70;99.90;;;;;;5034421;28;20301;-60
2022/04/17 03:34:14;;;;;;;1.95;1.25;;;6.70;99.90;;;;;;5033604;28;20204;-61
2022/04/17 03:36:42;;;;;;;1.50;1.25;;;6.70;99.90;;;;;;5033420;28;20291;-60
2022/04/17 03:39:10;;;;;;;2.75;1.95;;;6.60;99.90;;;;;;5038241;28;20735;-60
2022/04/17 03:41:38;;;;;;;1.38;1.27;;;6.60;99.90;;;;;;5035323;28;20287;-60
2022/04/17 03:44:05;;;;;;;1.88;1.63;;;6.60;99.90;;;;;;5033607;28;20197;-60
2022/04/17 03:46:33;;;;;;;3.83;1.73;;;6.40;99.90;;;;;;5034072;28;20201;-61
2022/04/17 03:49:03;;;;;;;1.55;1.45;;;6.40;99.90;;;;;;5033842;28;20662;-61
2022/04/17 03:51:32;;;;;;;3.45;2.60;;;6.30;99.90;;;;;;5033336;28;20196;-60
2022/04/17 03:54:00;;;;;;;5.72;2.20;;;6.30;99.90;;;;;;5033217;28;20255;-60
2022/04/17 03:56:28;;;;;;;2.95;2.08;;;6.40;99.90;;;;;;5033768;28;20619;-60
2022/04/17 03:58:56;;;;;;;2.20;1.73;;;6.60;99.90;;;;;;5033450;28;20645;-61
2022/04/17 04:01:26;;;;;;;1.75;1.48;;;6.70;99.90;;;;;;5033742;28;20255;-61
2022/04/17 04:03:54;;;;;;;2.83;1.65;;;6.60;99.90;;;;;;5026541;28;20686;-61
2022/04/17 04:06:22;;;;;;;2.20;2.00;;;6.60;99.90;;;;;;5027484;28;20607;-62
2022/04/17 04:08:53;;;;;;;2.35;1.85;;;6.70;99.90;;;;;;5031226;28;20209;-63
2022/04/17 04:11:21;;;;;;;2.05;1.60;;;6.90;99.90;;;;;;5027736;28;20353;-61
2022/04/17 04:13:49;;;;;;;2.40;1.80;;;6.80;99.90;;;;;;5033027;28;20227;-62
2022/04/17 04:16:17;;;;;;;2.88;1.67;;;6.80;99.90;;;;;;5033378;28;20213;-59
2022/04/17 04:18:45;;;;;;;3.65;2.17;;;6.60;99.90;;;;;;5033702;28;20263;-60
2022/04/17 04:21:13;;;;;;;2.30;1.80;;;6.60;99.90;;;;;;5033183;28;20226;-61
2022/04/17 04:23:41;;;;;;;4.25;2.38;;;6.70;99.90;;;;;;5032379;28;20205;-61
2022/04/17 04:26:10;;;;;;;2.83;1.80;;;6.80;99.90;;;;;;5027254;28;20208;-61
2022/04/17 04:28:37;;;;;;;2.70;1.65;;;6.80;99.90;;;;;;5033357;28;20205;-60
2022/04/17 04:31:09;;;;;;;1.65;1.38;;;7.00;99.90;;;;;;5032866;28;20224;-61
2022/04/17 04:33:38;;;;;;;1.80;1.42;;;7.20;99.90;;;;;;5032768;28;20627;-61
2022/04/17 04:36:08;;;;;;;1.85;1.75;;;7.10;99.90;;;;;;5033260;28;20239;-60
2022/04/17 04:38:37;;;;;;;3.08;1.80;;;7.10;99.90;;;;;;5032879;28;20288;-60
2022/04/17 04:41:05;;;;;;;1.90;1.75;;;7.10;99.90;;;;;;5032196;28;20266;-61
2022/04/17 04:43:34;;;;;;;1.90;1.60;;;7.00;99.90;;;;;;5032196;28;20262;-61
2022/04/17 04:46:07;;;;;;;2.97;1.77;;;6.90;99.90;;;;;;5033149;28;20204;-61
2022/04/17 04:51:21;;;;;;;2.13;1.80;;;6.90;99.90;;;;;;5032887;28;20319;-61
2022/04/17 04:53:49;;;;;;;4.45;1.60;;;6.90;99.90;;;;;;5031998;28;20280;-60
2022/04/17 04:56:18;;;;;;;3.25;1.85;;;7.10;99.90;;;;;;5032482;28;20345;-58
2022/04/17 04:58:47;;;;;;;2.08;1.70;;;7.30;99.90;;;;;;5032639;28;20299;-61
2022/04/17 05:01:15;;;;;;;4.13;2.42;;;7.40;99.90;;;;;;5032595;28;20229;-60
2022/04/17 05:03:43;;;;;;;2.70;1.60;;;7.40;99.90;;;;;;5031944;28;20270;-60
2022/04/17 05:06:11;;;;;;;4.75;1.55;;;7.40;99.90;;;;;;5032347;28;20201;-60
2022/04/17 05:08:39;;;;;;;2.25;1.80;;;7.40;99.90;;;;;;5032049;28;20220;-60
2022/04/17 05:11:07;;;;;;;2.40;1.75;;;7.40;99.90;;;;;;5070314;23;20278;-69
2022/04/17 05:13:35;;;;;;;2.20;1.60;;;7.30;99.90;;;;;;5050739;28;20204;-68
2022/04/17 05:16:05;;;;;;;5.60;2.08;;;7.30;99.90;;;;;;5045583;28;20562;-69
2022/04/17 05:18:33;;;;;;;2.50;1.95;;;7.40;99.90;;;;;;5045835;28;20224;-69
2022/04/17 05:21:02;;;;;;;3.28;1.95;;;7.40;99.90;;;;;;5051627;28;20244;-69
2022/04/17 05:23:30;;;;;;;3.08;2.45;;;7.40;99.90;;;;;;5050803;28;20200;-69
2022/04/17 05:26:00;;;;;;;1.85;1.75;;;7.40;99.90;;;;;;5051509;28;20200;-69
2022/04/17 05:28:29;;;;;;;3.50;1.90;;;7.60;99.90;;;;;;5051479;28;20219;-69
2022/04/17 05:30:57;;;;;;;3.10;2.10;;;7.60;99.90;;;;;;5051419;28;20727;-69
2022/04/17 05:33:27;;;;;;;1.73;1.60;;;7.70;99.90;;;;;;5050985;28;20299;-69
2022/04/17 05:35:55;;;;;;;1.75;1.65;;;7.80;99.90;;;;;;5050134;28;20612;-69
2022/04/17 05:38:23;;;;;;;1.90;1.80;;;7.70;99.90;;;;;;5044365;28;20641;-69
2022/04/17 05:40:52;;;;;;;2.35;1.83;;;7.80;99.90;;;;;;5054462;28;20243;-68
2022/04/17 05:43:21;;;;;;;3.20;2.08;;;7.80;99.90;;;;;;5053029;28;20290;-67
2022/04/17 05:45:49;;;;;;;2.80;1.90;;;7.80;99.90;;;;;;5052750;28;20192;-67
2022/04/17 05:48:17;;;;;;;1.88;1.67;;;7.90;99.90;;;;;;5050315;28;20232;-68
2022/04/17 05:50:47;;;;;;;2.85;2.35;;;7.80;99.90;;;;;;5050211;28;20243;-69
2022/04/17 05:53:15;;;;;;;2.05;1.83;;;7.70;99.90;;;;;;5049430;28;20200;-68
2022/04/17 05:55:43;;;;;;;4.18;2.67;;;7.70;99.90;;;;;;5049705;28;20817;-67
2022/04/17 05:58:11;;;;;;;3.28;2.17;;;7.70;99.90;;;;;;5050103;28;20248;-68
2022/04/17 06:00:42;;;;;;;2.20;2.00;;;7.70;99.90;;;;;;5049859;28;20207;-67
2022/04/17 06:03:10;;;;;;;3.75;2.00;;;7.90;99.90;;;;;;5046361;28;20214;-68
2022/04/17 06:05:38;;;;;;;2.03;1.75;;;7.90;99.90;;;;;;5049134;28;20188;-68
2022/04/17 06:08:08;;;;;;;3.70;2.22;;;7.90;99.90;;;;;;5048745;28;20207;-68
2022/04/17 06:10:36;;;;;;;3.03;2.55;;;8.00;99.90;;;;;;5052071;28;20886;-68
2022/04/17 06:13:04;;;;;;;2.55;2.35;;;8.10;99.90;;;;;;5049599;28;20680;-68
2022/04/17 06:15:32;;;;;;;3.30;2.15;;;8.20;99.90;;;;;;5041564;28;20551;-67
2022/04/17 06:18:00;;;;;;;3.70;1.90;;;8.20;99.90;;;;;;5049970;28;20235;-67
2022/04/17 06:20:28;;;;;;;4.80;2.47;;;8.40;99.90;;;;;;5031375;28;20310;-68
2022/04/17 06:22:56;;;;;;;5.43;2.20;;;8.60;99.90;;;;;;5049026;28;20223;-67
2022/04/17 06:25:25;;;;;;;3.20;2.00;;;8.70;99.90;;;;;;5049895;28;20200;-67
2022/04/17 06:27:54;;;;;;;2.75;2.00;;;8.80;99.90;;;;;;5049358;28;20201;-68
2022/04/17 06:30:27;;;;;;;2.90;1.83;;;8.80;99.90;;;;;;5048895;28;20227;-67
2022/04/17 06:32:55;;;;;;;3.22;1.92;;;8.90;99.90;;;;;;5048912;28;20199;-67
2022/04/17 06:35:23;;;;;;;2.65;2.10;;;8.90;99.90;;;;;;5051363;28;20360;-67
2022/04/17 06:37:52;;;;;;;6.30;2.38;;;8.90;99.90;;;;;;5048496;28;20212;-67
2022/04/17 06:40:22;;;;;;;3.67;1.58;;;9.00;99.90;;;;;;5047973;28;20219;-67
2022/04/17 06:42:52;;;;;;;2.53;2.15;;;9.10;99.90;;;;;;5048613;28;20576;-68
2022/04/17 06:45:21;;;;;;;2.88;2.10;;;9.20;99.90;;;;;;5048914;28;20199;-70
2022/04/17 06:47:49;;;;;;;3.72;1.50;;;9.30;99.90;;;;;;5048809;28;20273;-68
2022/04/17 06:50:18;;;;;;;2.53;1.88;;;9.30;99.60;;;;;;5049028;28;20787;-69
2022/04/17 06:52:46;;;;;;;2.63;1.95;;;9.30;99.60;;;;;;5048324;28;20204;-68
2022/04/17 06:55:14;;;;;;;2.58;2.38;;;9.50;99.90;;;;;;5030882;28;20224;-69
2022/04/17 06:57:46;;;;;;;2.10;2.00;;;9.60;99.80;;;;;;5048720;28;20251;-68
2022/04/17 07:00:18;;;;;;;2.75;1.95;;;9.60;99.80;;;;;;5047716;28;20248;-69
2022/04/17 07:02:46;;;;;;;2.95;2.10;;;9.70;99.80;;;;;;5051062;28;20211;-69
2022/04/17 07:05:15;;;;;;;2.10;1.60;;;9.80;99.40;;;;;;5050330;28;20208;-70
2022/04/17 07:07:43;;;;;;;3.45;2.03;;;10.00;99.80;;;;;;5047885;28;20712;-69
2022/04/17 07:10:11;;;;;;;2.28;2.08;;;10.10;99.40;;;;;;5050391;28;20243;-68
2022/04/17 07:12:42;;;;;;;3.50;2.00;;;10.10;98.60;;;;;;5047942;28;20626;-68
2022/04/17 07:15:11;;;;;;;2.00;1.75;;;10.30;97.60;;;;;;5049282;28;20208;-69
2022/04/17 07:17:42;;;;;;;1.90;1.60;;;10.40;98.30;;;;;;5048229;28;20259;-69
2022/04/17 07:20:11;;;;;;;2.53;1.73;;;10.40;98.00;;;;;;5047836;28;20739;-69
2022/04/17 07:22:41;;;;;;;2.30;2.13;;;10.60;97.70;;;;;;5047003;28;20200;-69
2022/04/17 07:25:10;;;;;;;4.63;1.80;;;10.70;97.60;;;;;;5048291;28;20257;-69
2022/04/17 07:27:39;;;;;;;2.75;1.85;;;10.90;97.50;;;;;;5047878;28;20231;-68
2022/04/17 07:30:11;;;;;;;1.90;1.80;;;11.00;96.80;;;;;;5045687;28;20220;-68
2022/04/17 07:32:42;;;;;;;2.30;1.80;;;11.10;96.10;;;;;;5043206;28;20669;-68
2022/04/17 07:35:11;;;;;;;2.67;1.80;;;11.10;96.10;;;;;;5047882;28;20200;-68
2022/04/17 07:37:39;;;;;;;2.92;1.80;;;11.10;96.10;;;;;;5046816;28;20238;-67
2022/04/17 07:40:13;;;;;;;2.45;1.90;;;11.10;95.60;;;;;;5048486;28;20588;-65
2022/04/17 07:42:41;;;;;;;2.22;1.98;;;11.30;96.20;;;;;;5048255;28;20197;-69
2022/04/17 07:45:10;;;;;;;4.00;2.25;;;11.40;95.00;;;;;;5048771;28;20683;-69
2022/04/17 07:47:38;;;;;;;2.50;1.95;;;11.60;95.50;;;;;;5048154;28;20220;-67
2022/04/17 07:50:09;;;;;;;2.47;2.13;;;11.80;95.70;;;;;;5047683;28;20220;-68
2022/04/17 07:52:37;;;;;;;4.30;2.85;;;11.80;94.30;;;;;;5047732;28;20557;-68
2022/04/17 07:55:06;;;;;;;3.08;1.80;;;12.00;95.10;;;;;;5048650;28;20677;-72
2022/04/17 07:57:54;;;;;;;2.08;1.92;;;12.10;93.70;;;;;;5048689;28;20738;-68
2022/04/17 08:00:22;;;;;;;2.83;2.17;;;12.30;94.70;;;;;;5049586;28;20274;-68
2022/04/17 08:03:20;;;;;;;2.95;2.40;;;12.60;94.60;;;;;;5052423;28;20707;-68
2022/04/17 08:05:51;;;;;;;2.70;1.70;;;12.80;93.70;;;;;;5046739;28;20200;-67
2022/04/17 08:08:19;;;;;;;2.33;2.13;;;13.00;93.70;;;;;;5050146;28;20192;-68
2022/04/17 08:10:47;;;;;;;3.33;2.63;;;13.10;93.90;;;;;;5052261;28;20278;-68
2022/04/17 08:13:15;;;;;;;3.58;2.30;;;13.20;92.90;;;;;;5037119;28;20232;-67
2022/04/17 08:15:43;;;;;;;2.00;1.80;;;13.20;92.30;;;;;;5052587;28;20208;-69
2022/04/17 08:18:11;;;;;;;2.67;1.98;;;13.20;92.60;;;;;;5053222;28;20240;-67
2022/04/17 08:20:39;;;;;;;2.95;2.20;;;13.30;91.20;;;;;;5052625;28;20274;-68
2022/04/17 08:23:08;;;;;;;2.10;1.90;;;13.40;91.50;;;;;;5052061;28;20303;-68
2022/04/17 08:25:36;;;;;;;2.60;2.03;;;13.70;91.10;;;;;;5052922;28;20208;-69
2022/04/17 08:28:05;;;;;;;3.08;1.40;;;13.90;92.00;;;;;;5052766;28;20336;-69
2022/04/17 08:30:34;;;;;;;2.28;2.08;;;14.10;90.10;;;;;;5050964;28;20220;-68
2022/04/17 08:33:04;;;;;;;2.97;2.53;;;14.20;90.10;;;;;;5052045;28;20620;-69
2022/04/17 08:35:32;;;;;;;2.75;1.95;;;14.10;89.80;;;;;;5052526;28;20257;-69
2022/04/17 08:38:03;;;;;;;3.08;2.17;;;14.10;91.20;;;;;;5049499;28;20196;-68
2022/04/17 08:40:32;;;;;;;1.92;1.83;;;14.30;89.80;;;;;;5057409;28;20216;-69
2022/04/17 08:43:01;;;;;;;2.28;2.00;;;14.10;89.40;;;;;;5048676;28;20208;-69
2022/04/17 08:45:30;;;;;;;4.38;2.45;;;14.50;90.60;;;;;;5047740;28;20575;-68
2022/04/17 08:47:57;;;;;;;2.20;1.95;;;14.50;88.20;;;;;;5046855;28;20200;-68
2022/04/17 08:50:25;;;;;;;1.90;1.80;;;14.50;88.20;;;;;;5051072;28;20216;-69
2022/04/17 08:52:55;;;;;;;2.42;2.20;;;14.60;88.70;;;;;;5050755;28;20253;-71
2022/04/17 08:55:23;;;;;;;2.13;1.63;;;14.80;88.40;;;;;;5048856;28;20253;-71
2022/04/17 08:57:53;;;;;;;2.25;2.05;;;14.80;86.50;;;;;;5049954;28;20200;-71
2022/04/17 09:00:22;;;;;;;3.20;1.95;;;14.80;86.30;;;;;;5048436;28;20760;-70
2022/04/17 09:02:50;;;;;;;2.15;2.05;;;15.20;89.20;;;;;;5048984;28;20196;-71
2022/04/17 09:05:19;;;;;;;2.22;2.00;;;15.70;87.70;;;;;;5049898;28;20204;-70
2022/04/17 09:07:49;;;;;;;2.50;2.13;;;16.00;89.90;;;;;;5050062;28;20566;-69
2022/04/17 09:10:26;;;;;;;5.38;1.92;;;16.20;84.90;;;;;;5049718;28;20228;-68
2022/04/17 09:12:57;;;;;;;3.70;2.58;;;16.20;85.50;;;;;;5046659;28;21352;-69
2022/04/17 09:15:26;;;;;;;2.63;2.22;;;16.10;83.70;;;;;;5049695;28;20208;-68
2022/04/17 09:17:54;;;;;;;2.33;1.70;;;16.20;81.90;;;;;;5050299;28;20723;-68
2022/04/17 09:20:24;;;;;;;2.10;1.90;;;16.00;82.20;;;;;;5050097;28;20231;-69
2022/04/17 09:22:53;;;;;;;2.22;1.88;;;16.00;83.10;;;;;;5051082;28;20200;-69
2022/04/17 09:25:24;;;;;;;2.15;1.95;;;16.20;84.60;;;;;;5050919;28;20206;-69
2022/04/17 09:27:58;;;;;;;3.05;2.33;;;16.30;81.60;;;;;;5051601;28;20195;-69
2022/04/17 09:30:28;;;;;;;2.30;1.92;;;16.10;80.20;;;;;;5051788;28;20270;-69
2022/04/17 09:32:57;;;;;;;3.28;2.22;;;16.40;79.60;;;;;;5050404;28;20248;-70
2022/04/17 09:35:26;;;;;;;2.70;1.83;;;16.60;80.50;;;;;;5051649;28;20204;-69
2022/04/17 09:37:58;;;;;;;2.25;1.70;;;16.50;79.10;;;;;;5051537;28;20236;-69
2022/04/17 09:40:28;;;;;;;2.38;1.90;;;16.80;78.90;;;;;;5049875;28;20240;-69
2022/04/17 09:43:11;;;;;;;1.77;1.50;;;17.30;80.60;;;;;;5054052;28;20189;-68
2022/04/17 09:45:58;;;;;;;2.05;1.55;;;17.60;78.70;;;;;;5051156;28;20235;-70
2022/04/17 09:48:30;;;;;;;2.78;1.85;;;17.50;77.60;;;;;;5045365;28;20199;-70
2022/04/17 09:50:58;;;;;;;2.30;1.80;;;17.20;78.20;;;;;;5051466;28;20223;-70
2022/04/17 09:53:31;;;;;;;3.45;1.90;;;17.20;78.60;;;;;;5032876;28;20620;-70
2022/04/17 09:56:06;;;;;;;2.75;2.10;;;17.30;79.40;;;;;;5045002;28;20200;-67
2022/04/17 09:58:38;;;;;;;2.00;1.45;;;17.20;78.00;;;;;;5046175;28;20246;-66
2022/04/17 10:01:15;;;;;;;2.28;1.73;;;17.10;76.80;;;;;;5051094;28;20240;-70
2022/04/17 10:03:44;;;;;;;3.90;1.60;;;17.00;76.80;;;;;;5050865;28;20212;-68
2022/04/17 10:06:13;;;;;;;5.03;1.88;;;17.40;79.00;;;;;;5051312;28;20207;-68
2022/04/17 10:08:44;;;;;;;2.78;2.30;;;17.50;75.80;;;;;;5050989;28;20240;-68
2022/04/17 10:11:14;;;;;;;2.40;1.77;;;17.30;75.90;;;;;;5023637;28;20598;-67
2022/04/17 10:13:44;;;;;;;2.50;1.50;;;17.10;77.30;;;;;;5024329;28;20229;-68
2022/04/17 10:16:13;;;;;;;2.85;1.95;;;17.00;75.40;;;;;;5031041;28;20208;-68
2022/04/17 10:18:45;;;;;;;2.40;1.80;;;17.30;77.00;;;;;;5031153;28;20200;-68
2022/04/17 10:21:14;;;;;;;3.10;1.60;;;17.70;75.70;;;;;;5026910;28;20256;-68
2022/04/17 10:23:45;;;;;;;2.42;1.40;;;17.80;74.80;;;;;;5030045;28;20231;-68
2022/04/17 10:26:15;;;;;;;2.47;1.60;;;17.70;72.90;;;;;;5031160;28;20243;-68
2022/04/17 10:28:47;;;;;;;3.72;2.10;;;17.70;75.00;;;;;;5031198;28;20666;-68
2022/04/17 10:31:19;;;;;;;1.70;1.35;;;17.70;73.00;;;;;;5018128;28;20275;-68
2022/04/17 10:34:12;;;;;;;1.70;1.45;;;17.80;72.80;;;;;;5030320;28;20580;-68
2022/04/17 10:37:11;;;;;;;2.72;1.60;;;17.90;70.80;;;;;;5018307;28;20220;-68
2022/04/17 10:39:42;;;;;;;1.65;1.40;;;18.00;73.90;;;;;;5023912;28;20252;-67
2022/04/17 10:42:11;;;;;;;2.58;1.50;;;17.60;72.00;;;;;;5029927;28;20193;-68
2022/04/17 10:44:41;;;;;;;2.45;1.60;;;17.80;72.30;;;;;;5031044;28;20270;-67
2022/04/17 10:47:20;;;;;;;2.47;1.65;;;17.70;72.70;;;;;;5030918;28;21010;-69
2022/04/17 10:49:56;;;;;;;3.60;1.73;;;17.70;72.10;;;;;;5030815;28;20252;-68
2022/04/17 10:52:28;;;;;;;2.40;1.63;;;17.70;71.00;;;;;;5030008;28;20215;-68
2022/04/17 10:55:07;;;;;;;2.85;1.65;;;17.80;70.00;;;;;;5030471;28;20255;-67
2022/04/17 10:57:43;;;;;;;4.13;1.92;;;18.30;72.80;;;;;;5030438;28;20227;-68
2022/04/17 11:00:33;;;;;;;3.63;1.95;;;18.20;72.50;;;;;;5028732;28;20267;-68
2022/04/17 11:03:26;;;;;;;1.90;1.63;;;18.00;72.90;;;;;;5022077;28;20188;-68
2022/04/17 11:08:52;;;;;;;1.67;1.58;;;18.30;73.60;;;;;;5026410;28;20241;-69
2022/04/17 11:11:19;;;;;;;1.50;1.40;;;18.60;71.80;;;;;;5045109;23;20240;-62
2022/04/17 11:14:10;;;;;;;2.75;1.63;;;18.70;73.80;;;;;;5046558;28;20231;-63
2022/04/17 11:16:47;;;;;;;2.67;1.80;;;18.60;71.30;;;;;;5050727;28;20238;-63
2022/04/17 11:19:18;;;;;;;2.50;1.67;;;18.90;72.10;;;;;;5050734;28;20306;-63
2022/04/17 11:21:50;;;;;;;3.78;1.90;;;18.70;72.20;;;;;;5067608;28;20281;-63
2022/04/17 11:24:19;;;;;;;2.08;1.85;;;18.80;70.90;;;;;;5069712;28;20631;-63
2022/04/17 11:27:09;;;;;;;1.63;1.50;;;18.80;71.50;;;;;;5070703;28;20731;-62
2022/04/17 11:29:40;;;;;;;2.40;1.63;;;18.70;70.80;;;;;;5070761;28;20660;-63
2022/04/17 11:32:53;;;;;;;1.55;1.40;;;18.90;71.10;;;;;;5069817;28;20257;-63
2022/04/17 11:35:23;;;;;;;1.40;1.30;;;18.90;71.00;;;;;;5070626;28;20200;-63
2022/04/17 11:37:56;;;;;;;1.75;1.30;;;19.20;71.70;;;;;;5073933;28;20241;-63
2022/04/17 11:40:27;;;;;;;1.92;1.35;;;19.20;73.00;;;;;;5068024;28;20313;-63
2022/04/17 11:42:56;;;;;;;2.65;1.58;;;19.20;71.90;;;;;;5070910;28;20751;-63
2022/04/17 11:45:26;;;;;;;2.67;1.48;;;19.00;71.40;;;;;;5074354;28;20226;-63
2022/04/17 11:47:56;;;;;;;1.67;1.30;;;19.30;70.20;;;;;;5074842;28;20207;-63
2022/04/17 11:50:27;;;;;;;1.92;1.48;;;20.00;67.60;;;;;;5074372;28;20843;-64
2022/04/17 11:52:57;;;;;;;2.05;1.35;;;20.40;68.90;;;;;;5073468;28;20207;-64
2022/04/17 11:55:26;;;;;;;2.33;1.50;;;20.60;68.70;;;;;;5073842;28;20627;-63
2022/04/17 11:57:55;;;;;;;2.15;1.48;;;20.70;68.20;;;;;;5074069;28;20626;-63
2022/04/17 12:00:24;;;;;;;2.38;1.40;;;20.50;68.20;;;;;;5073749;28;20310;-63
2022/04/17 12:02:58;;;;;;;1.65;1.23;;;20.50;65.90;;;;;;5073244;28;20298;-63
2022/04/17 12:05:26;;;;;;;1.55;1.20;;;20.50;65.20;;;;;;5073968;28;20256;-63
2022/04/17 12:08:06;;;;;;;1.70;1.10;;;20.20;67.10;;;;;;5074179;28;20199;-64
2022/04/17 12:10:36;;;;;;;2.90;1.20;;;20.40;65.30;;;;;;5066722;28;20223;-63
2022/04/17 12:13:18;;;;;;;2.03;1.17;;;20.50;66.80;;;;;;5049594;28;20294;-63
2022/04/17 12:15:48;;;;;;;3.05;1.52;;;20.50;64.10;;;;;;5054106;28;20777;-63
2022/04/17 12:18:19;;;;;;;2.97;1.40;;;20.60;66.50;;;;;;5046507;28;20688;-63
2022/04/17 12:20:57;;;;;;;1.52;1.30;;;20.40;65.50;;;;;;5057751;28;20258;-63
2022/04/17 12:23:26;;;;;;;1.92;1.30;;;20.20;65.00;;;;;;5052373;28;20211;-64
2022/04/17 12:25:54;;;;;;;1.25;1.00;;;20.10;64.30;;;;;;5053417;28;20238;-63
2022/04/17 12:28:23;;;;;;;1.30;1.20;;;20.10;65.20;;;;;;5053300;28;20226;-63
2022/04/17 12:30:51;;;;;;;2.10;0.95;;;20.10;64.30;;;;;;5055168;28;20212;-63
2022/04/17 12:33:23;;;;;;;1.23;1.13;;;19.80;65.20;;;;;;5052388;28;20635;-63
2022/04/17 12:36:08;;;;;;;2.50;1.10;;;19.60;66.30;;;;;;5046759;28;20207;-64
2022/04/17 12:38:38;;;;;;;2.85;1.65;;;19.70;63.70;;;;;;5053305;28;20568;-63
2022/04/17 12:41:19;;;;;;;2.03;1.40;;;20.10;62.50;;;;;;5048606;28;20561;-63
2022/04/17 12:43:50;;;;;;;2.20;1.50;;;19.90;65.50;;;;;;5052237;28;20212;-62
2022/04/17 12:46:29;;;;;;;1.60;0.93;;;20.00;64.80;;;;;;5059682;28;20212;-63
2022/04/17 12:49:06;;;;;;;1.40;1.20;;;20.10;65.10;;;;;;5046613;28;20218;-64
2022/04/17 12:51:35;;;;;;;2.42;1.13;;;20.30;65.40;;;;;;5052760;28;20630;-63
2022/04/17 12:54:05;;;;;;;1.50;1.38;;;20.30;65.20;;;;;;5051967;28;20200;-63
2022/04/17 12:56:32;;;;;;;2.05;1.60;;;20.50;63.40;;;;;;5056153;28;20265;-63
2022/04/17 12:59:02;;;;;;;1.60;1.50;;;20.50;64.70;;;;;;5052897;28;20283;-63
2022/04/17 13:01:31;;;;;;;2.78;1.58;;;20.70;62.80;;;;;;5052448;28;20743;-64
2022/04/17 13:04:16;;;;;;;1.90;1.30;;;21.00;60.70;;;;;;5051749;28;20208;-63
2022/04/17 13:06:45;;;;;;;1.30;1.00;;;20.90;60.70;;;;;;5059525;28;20253;-64
2022/04/17 13:09:18;;;;;;;2.40;1.35;;;21.20;61.70;;;;;;5043035;28;20238;-63
2022/04/17 13:11:49;;;;;;;1.98;1.30;;;21.40;61.20;;;;;;5058904;28;20235;-63
2022/04/17 13:14:17;;;;;;;4.20;1.30;;;21.30;60.10;;;;;;5071623;28;20203;-63
2022/04/17 13:16:50;;;;;;;1.50;1.00;;;21.20;60.40;;;;;;5072377;28;20205;-64
2022/04/17 13:19:22;;;;;;;2.10;1.65;;;21.30;62.10;;;;;;5065783;28;20206;-64
2022/04/17 13:21:50;;;;;;;1.67;1.05;;;21.90;60.90;;;;;;5066126;28;20250;-63
2022/04/17 13:24:20;;;;;;;1.55;1.45;;;22.20;59.80;;;;;;5071385;28;20688;-63
2022/04/17 13:26:48;;;;;;;2.55;1.10;;;21.80;60.40;;;;;;5072139;28;20257;-64